Nearby METAR Reports

 

KDLZ - Delaware, Ohio, USA
Distance from station: SW 3mi, 5km
Updated: Thu, 23-Jan-2020 2:36am EST
Clear
Clear
 Wind from calm
Wind: Calm
Temperature: 30°F , -1°C
Dew Point: 19°F , -7°C
Humidity: 64%
Barometer: 30.24 inHg , 1024 hPa
Clouds: Clear
Visibility: 10 miles , 16 km
2020/01/23 07:36 KDLZ 230736Z AUTO 00000KT 10SM CLR M01/M07 A3024 RMK AO2
KOSU - Columbus/St Univ, Ohio, USA
Distance from station: S 16mi, 25km
Updated: Thu, 23-Jan-2020 1:53am EST
Clear
Clear
 Wind from ESE
Wind: ESE 5 mph , 7 km/h
Temperature: 28°F , -2°C
Wind Chill: 22°F , -6°C
Dew Point: 16°F , -9°C
Humidity: 59%
Barometer: 30.25 inHg , 1024.4 hPa
Clouds: Clear
Visibility: 10 miles , 16 km
2020/01/23 06:53 KOSU 230653Z AUTO 11004KT 10SM CLR M02/M09 A3025 RMK AO2 SLP251 T10221089
 
KMRT - Marysville, Ohio, USA
Distance from station: WSW 16mi, 26km
Updated: Thu, 23-Jan-2020 2:38am EST
Clear
Clear
 Wind from calm
Wind: Calm
Temperature: 28°F , -2°C
Dew Point: 19°F , -7°C
Humidity: 69%
Barometer: 30.23 inHg , 1023.7 hPa
Clouds: Clear
Visibility: 10 miles , 16 km
2020/01/23 07:38 KMRT 230738Z AUTO 00000KT 10SM CLR M02/M07 A3023 RMK AO2 T10201072
KMNN - Marion, Ohio, USA
Distance from station: N 21mi, 34km
Updated: Thu, 23-Jan-2020 1:53am EST
Clear
Clear
 Wind from SSE
Wind: SSE 8 mph , 13 km/h
Temperature: 30°F , -1°C
Wind Chill: 22°F , -6°C
Dew Point: 18°F , -8°C
Humidity: 59%
Barometer: 30.24 inHg , 1024 hPa
Clouds: Clear
Visibility: 10 miles , 16 km
2020/01/23 06:53 KMNN 230653Z AUTO 16007KT 10SM CLR M01/M08 A3024 RMK AO2 SLP250 T10111083
 
KCMH - Columbus, Ohio, USA
Distance from station: SSE 24mi, 38km
Updated: Thu, 23-Jan-2020 1:51am EST
Overcast
Overcast
 Wind from calm
Wind: Calm
Temperature: 27°F , -3°C
Dew Point: 18°F , -8°C
Humidity: 69%
Barometer: 30.25 inHg , 1024.4 hPa
Clouds: Overcast
Visibility: 10 miles , 16 km
Cloud details: Overcast 17000 ft
2020/01/23 06:51 KCMH 230651Z 00000KT 10SM OVC170 M03/M08 A3025 RMK AO2 SLP253 T10281078
K4I3 - Mt Vernon/Knox, Ohio, USA
Distance from station: E 29mi, 46km
Updated: Thu, 23-Jan-2020 2:35am EST
Clear
Clear
 Wind from calm
Wind: Calm
Temperature: 28°F , -2°C
Dew Point: 16°F , -9°C
Humidity: 59%
Barometer: 30.25 inHg , 1024.4 hPa
Clouds: Clear
Visibility: 10 miles , 16 km
2020/01/23 07:35 K4I3 230735Z AUTO 00000KT 10SM CLR M02/M09 A3025 RMK AO2
 
KTZR - Columbus/Bolton, Ohio, USA
Distance from station: S 29mi, 46km
Updated: Thu, 23-Jan-2020 2:35am EST
Clear
Clear
 Wind from calm
Wind: Calm
Temperature: 27°F , -3°C
Dew Point: 19°F , -7°C
Humidity: 74%
Barometer: 30.24 inHg , 1024 hPa
Clouds: Clear
Visibility: 10 miles , 16 km
2020/01/23 07:35 KTZR 230735Z AUTO 00000KT 10SM CLR M03/M07 A3024 RMK AO2 T10271070
KUYF - London, Ohio, USA
Distance from station: SW 33mi, 54km
Updated: Thu, 23-Jan-2020 2:35am EST
Clear
Clear
 Wind from SE
Wind: SE 3 mph , 6 km/h
Temperature: 28°F , -2°C
Dew Point: 19°F , -7°C
Humidity: 69%
Barometer: 30.22 inHg , 1023.4 hPa
Clouds: Clear
Visibility: 10 miles , 16 km
2020/01/23 07:35 KUYF 230735Z AUTO 13003KT 10SM CLR M02/M07 A3022 RMK AO2
 
KLCK - Rickenbacker Ang, Ohio, USA
Distance from station: SSE 35mi, 57km
Updated: Thu, 23-Jan-2020 1:55am EST
Clear
Clear
 Wind from calm
Wind: Calm
Temperature: 27°F , -3°C
Dew Point: 19°F , -7°C
Humidity: 74%
Barometer: 30.25 inHg , 1024.4 hPa
Clouds: Clear
Visibility: 10 miles , 16 km
2020/01/23 06:55 KLCK 230655Z AUTO 00000KT 10SM CLR M03/M07 A3025 RMK AO2 T10331069
KVTA - Newark, Ohio, USA
Distance from station: ESE 38mi, 61km
Updated: Thu, 23-Jan-2020 1:54am EST
Clear
Clear
 Wind from calm
Wind: Calm
Temperature: 23°F , -5°C
Dew Point: 19°F , -7°C
Humidity: 86%
Barometer: 30.26 inHg , 1024.7 hPa
Clouds: Clear
Visibility: 10 miles , 16 km
2020/01/23 06:54 KVTA 230654Z AUTO 00000KT 10SM CLR M05/M07 A3026 RMK AO2 SLP256 T10501072
 
KEDJ - Bellefontaine, Ohio, USA
Distance from station: W 39mi, 63km
Updated: Thu, 23-Jan-2020 2:15am EST
Clear
Clear
 
Temperature: 30°F , -1°C
Dew Point: 19°F , -7°C
Humidity: 64%
Barometer: 30.21 inHg , 1023 hPa
Clouds: Clear
Visibility: 10 miles , 16 km
2020/01/23 07:15 KEDJ 230715Z AUTO 10SM CLR M01/M07 A3021 RMK AO1
KLHQ - Lancaster, Ohio, USA
Distance from station: SSE 44mi, 71km
Updated: Thu, 23-Jan-2020 1:53am EST
Clear
Clear
 Wind from calm
Wind: Calm
Temperature: 25°F , -4°C
Dew Point: 21°F , -6°C
Humidity: 86%
Barometer: 30.26 inHg , 1024.7 hPa
Clouds: Clear
Visibility: 10 miles , 16 km
2020/01/23 06:53 KLHQ 230653Z AUTO 00000KT 10SM CLR M04/M06 A3026 RMK AO2 SLP255 T10391061
 
KMFD - Mansfield, Ohio, USA
Distance from station: NE 46mi, 73km
Updated: Thu, 23-Jan-2020 1:52am EST
Clear
Clear
 Wind from S
Wind: S 14 mph , 22 km/h
Temperature: 32°F , 0°C
Wind Chill: 22°F , -6°C
Dew Point: 16°F , -9°C
Humidity: 51%
Barometer: 30.23 inHg , 1023.7 hPa
Clouds: Clear
Visibility: 10 miles , 16 km
2020/01/23 06:52 KMFD 230652Z AUTO 17012KT 10SM CLR 00/M09 A3023 RMK AO2 SLP248 T00001089
KSGH - Springfield Muni, Ohio, USA
Distance from station: SW 52mi, 84km
Updated: Thu, 23-Jan-2020 1:56am EST
Clear
Clear
 Wind from SE
Wind: SE 6 mph , 9 km/h
Temperature: 30°F , -1°C
Wind Chill: 24°F , -4°C
Dew Point: 21°F , -6°C
Humidity: 69%
Barometer: 30.22 inHg , 1023.4 hPa
Clouds: Clear
Visibility: 10 miles , 16 km
2020/01/23 06:56 KSGH 230656Z AUTO 14005KT 10SM CLR M01/M06 A3022 RMK AO2 SLP245 T10111056
 
KI23 - Washington Court, Ohio, USA
Distance from station: SSW 55mi, 88km
Updated: Thu, 23-Jan-2020 2:35am EST
Clear
Clear
 Wind from ESE
Wind: ESE 3 mph , 6 km/h
Temperature: 27°F , -3°C
Dew Point: 21°F , -6°C
Humidity: 80%
Barometer: 30.23 inHg , 1023.7 hPa
Clouds: Clear
Visibility: 10 miles , 16 km
2020/01/23 07:35 KI23 230735Z AUTO 11003KT 10SM CLR M03/M06 A3023 RMK AO1
KAOH - Lima, Ohio, USA
Distance from station: WNW 56mi, 91km
Updated: Thu, 23-Jan-2020 1:53am EST
Clear
Clear
 Wind from SSE
Wind: SSE 12 mph , 19 km/h
Temperature: 30°F , -1°C
Wind Chill: 20°F , -7°C
Dew Point: 19°F , -7°C
Humidity: 64%
Barometer: 30.20 inHg , 1022.7 hPa
Clouds: Clear
Visibility: 10 miles , 16 km
2020/01/23 06:53 KAOH 230653Z AUTO 16010KT 10SM CLR M01/M07 A3020 RMK AO2 SLP236 T10061072 $
 
KFDY - Findlay, Ohio, USA
Distance from station: NNW 58mi, 93km
Updated: Thu, 23-Jan-2020 1:53am EST
Clear
Clear
 Wind from SSE
Wind: SSE 12 mph , 19 km/h
Temperature: 34°F , 1°C
Wind Chill: 25°F , -4°C
Dew Point: 19°F , -7°C
Humidity: 56%
Barometer: 30.20 inHg , 1022.7 hPa
Clouds: Clear
Visibility: 10 miles , 16 km
2020/01/23 06:53 KFDY 230653Z AUTO 16010KT 10SM CLR 01/M07 A3020 RMK AO2 SLP233 T00061072
KFFO - Wright Paterson, Ohio, USA
Distance from station: SW 61mi, 98km
Updated: Thu, 23-Jan-2020 1:56am EST
Clear
Clear
 Wind from calm
Wind: Calm
Temperature: 28°F , -2°C
Dew Point: 18°F , -8°C
Humidity: 64%
Barometer: 30.22 inHg , 1023.4 hPa
Clouds: Clear
Visibility: 10 miles , 16 km
2020/01/23 06:56 KFFO 230656Z AUTO 00000KT 10SM CLR M02/M08 A3022 RMK AO2 SLP245 T10211082
 
KRZT - Chillicothe, Ohio, USA
Distance from station: S 61mi, 98km
Updated: Thu, 23-Jan-2020 2:35am EST
Clear
Clear
 Wind from calm
Wind: Calm
Temperature: 28°F , -2°C
Dew Point: 23°F , -5°C
Humidity: 80%
Barometer: 30.25 inHg , 1024.4 hPa
Clouds: Clear
Visibility: 10 miles , 16 km
2020/01/23 07:35 KRZT 230735Z AUTO 00000KT 10SM CLR M02/M05 A3025 RMK AO2 PWINO
KI19 - Dayton-Jackson, Ohio, USA
Distance from station: SW 65mi, 105km
Updated: Thu, 23-Jan-2020 2:36am EST
Clear
Clear
 Wind from calm
Wind: Calm
Temperature: 32°F , 0°C
Dew Point: 18°F , -8°C
Humidity: 55%
Barometer: 30.22 inHg , 1023.4 hPa
Clouds: Clear
Visibility: 10 miles , 16 km
2020/01/23 07:36 KI19 230736Z AUTO 00000KT 10SM CLR 00/M08 A3022 RMK AO2 T10011082